Time;durP1;ratioP1;P1;durP2;ratioP2;P2;SDS_P1;SDS_P2;PMS_P1;PMS_P2;Temp;Humidity;BMP_temperature;BMP_pressure;BME280_temperature;BME280_humidity;BME280_pressure;Samples;Min_cycle;Max_cycle;Signal;HPM_P1;HPM_P2
2021/12/26 00:00:23;;;;;;;19.10;7.32;;;-6.30;79.00;;;;;;5013000;28;20033;-63
2021/12/26 00:02:50;;;;;;;16.35;7.60;;;-6.40;79.90;;;;;;5009752;28;20377;-63
2021/12/26 00:05:17;;;;;;;18.58;7.55;;;-6.40;81.80;;;;;;5006243;28;20033;-63
2021/12/26 00:07:43;;;;;;;14.05;6.78;;;-6.40;80.70;;;;;;5006477;28;20104;-63
2021/12/26 00:10:12;;;;;;;16.75;7.15;;;-6.50;81.00;;;;;;5007036;28;20029;-63
2021/12/26 00:12:38;;;;;;;14.68;6.97;;;-6.50;81.70;;;;;;5011386;28;20125;-63
2021/12/26 00:15:05;;;;;;;17.80;7.68;;;-6.50;82.70;;;;;;5012475;28;20207;-63
2021/12/26 00:17:31;;;;;;;14.00;6.85;;;-6.50;82.70;;;;;;5011641;28;20576;-63
2021/12/26 00:19:56;;;;;;;13.80;7.43;;;-6.50;83.40;;;;;;5005259;28;20083;-63
2021/12/26 00:22:22;;;;;;;14.80;6.22;;;-6.50;85.20;;;;;;5002993;28;20037;-63
2021/12/26 00:24:48;;;;;;;10.20;5.60;;;-6.40;85.80;;;;;;5001005;28;20037;-63
2021/12/26 00:27:15;;;;;;;11.18;5.75;;;-6.50;85.70;;;;;;5016341;28;20030;-63
2021/12/26 00:29:41;;;;;;;17.63;6.13;;;-6.40;85.40;;;;;;5010285;28;20788;-63
2021/12/26 00:32:08;;;;;;;10.38;5.63;;;-6.40;84.10;;;;;;5009460;28;20068;-63
2021/12/26 00:34:35;;;;;;;11.85;4.93;;;-6.30;83.50;;;;;;5009827;28;20109;-63
2021/12/26 00:37:01;;;;;;;8.32;4.43;;;-6.40;82.20;;;;;;5013687;28;20092;-63
2021/12/26 00:39:26;;;;;;;8.93;4.32;;;-6.40;81.40;;;;;;5005561;28;20026;-63
2021/12/26 00:41:53;;;;;;;10.10;4.07;;;-6.40;80.40;;;;;;5007516;28;20096;-63
2021/12/26 00:44:20;;;;;;;6.70;3.75;;;-6.50;80.70;;;;;;5010952;28;20034;-63
2021/12/26 00:46:45;;;;;;;12.68;6.32;;;-6.50;81.00;;;;;;5008851;28;20025;-63
2021/12/26 00:49:11;;;;;;;11.50;6.25;;;-6.50;81.30;;;;;;5010384;28;20374;-63
2021/12/26 00:51:37;;;;;;;13.55;6.10;;;-6.50;83.50;;;;;;5003519;28;20037;-63
2021/12/26 00:54:03;;;;;;;12.32;6.55;;;-6.50;83.60;;;;;;5008263;28;20144;-63
2021/12/26 00:56:30;;;;;;;13.10;7.07;;;-6.50;83.90;;;;;;5009791;28;20440;-63
2021/12/26 00:58:56;;;;;;;10.68;5.32;;;-6.40;84.90;;;;;;5009021;28;20048;-63
2021/12/26 01:01:22;;;;;;;11.10;5.88;;;-6.30;86.30;;;;;;5014301;28;20033;-63
2021/12/26 01:03:48;;;;;;;14.27;5.97;;;-6.20;86.80;;;;;;5011339;28;20030;-63
2021/12/26 01:06:15;;;;;;;12.98;5.43;;;-6.20;87.20;;;;;;5007843;28;20025;-63
2021/12/26 01:08:43;;;;;;;11.00;6.10;;;-6.20;86.60;;;;;;5012760;28;20071;-63
2021/12/26 01:11:23;;;;;;;10.85;6.13;;;-6.20;86.40;;;;;;5013719;28;20026;-63
2021/12/26 01:13:50;;;;;;;9.57;5.45;;;-6.20;84.20;;;;;;5009472;28;20033;-63
2021/12/26 01:17:01;;;;;;;13.90;5.72;;;-6.20;84.10;;;;;;5035544;28;20032;-63
2021/12/26 01:19:34;;;;;;;12.65;5.93;;;-6.20;83.60;;;;;;4999534;28;20057;-63
2021/12/26 01:22:00;;;;;;;10.63;5.22;;;-6.30;82.20;;;;;;5016035;28;20033;-63
2021/12/26 01:24:25;;;;;;;12.05;6.00;;;-6.30;82.10;;;;;;4991902;28;20032;-63
2021/12/26 01:26:52;;;;;;;14.80;5.97;;;-6.40;81.60;;;;;;5017700;28;20035;-63
2021/12/26 01:29:27;;;;;;;15.98;5.65;;;-6.40;81.20;;;;;;5013390;28;20035;-63
2021/12/26 01:31:53;;;;;;;18.63;6.65;;;-6.40;81.20;;;;;;5010912;28;20034;-63
2021/12/26 01:34:37;;;;;;;10.38;4.95;;;-6.50;81.10;;;;;;5006287;28;20076;-63
2021/12/26 01:37:29;;;;;;;7.22;4.18;;;-6.50;81.80;;;;;;5017028;28;20409;-63
2021/12/26 01:40:06;;;;;;;10.93;4.75;;;-6.50;84.60;;;;;;5009815;28;20022;-63
2021/12/26 01:42:39;;;;;;;8.52;4.03;;;-6.50;86.10;;;;;;4999620;28;20505;-63
2021/12/26 01:45:18;;;;;;;8.88;4.43;;;-6.40;85.50;;;;;;5011813;28;20132;-63
2021/12/26 01:48:03;;;;;;;9.43;4.65;;;-6.40;85.40;;;;;;5009802;28;20736;-63
2021/12/26 01:50:33;;;;;;;9.38;4.68;;;-6.30;84.30;;;;;;5012588;28;20021;-63
2021/12/26 01:52:59;;;;;;;10.60;4.85;;;-6.30;83.90;;;;;;5012466;28;20054;-63
2021/12/26 01:55:38;;;;;;;11.27;4.85;;;-6.40;82.90;;;;;;5012942;28;20029;-63
2021/12/26 01:58:06;;;;;;;12.88;5.03;;;-6.40;85.40;;;;;;5018081;28;20036;-63
2021/12/26 02:00:33;;;;;;;10.13;4.70;;;-6.50;85.50;;;;;;5018677;28;20379;-63
2021/12/26 02:03:00;;;;;;;11.73;5.35;;;-6.50;84.50;;;;;;5013503;28;20026;-63
2021/12/26 02:05:26;;;;;;;10.32;4.55;;;-6.60;83.80;;;;;;5015934;28;20052;-63
2021/12/26 02:07:58;;;;;;;11.40;5.28;;;-6.60;84.50;;;;;;5013951;28;20021;-63
2021/12/26 02:10:23;;;;;;;7.60;4.10;;;-6.70;85.20;;;;;;5012669;28;20029;-63
2021/12/26 02:12:50;;;;;;;8.77;4.40;;;-6.70;85.60;;;;;;5006709;28;20116;-62
2021/12/26 02:15:16;;;;;;;8.35;4.15;;;-6.70;84.90;;;;;;5007582;28;20067;-62
2021/12/26 02:17:57;;;;;;;7.07;3.20;;;-6.70;84.90;;;;;;5013880;28;20021;-62
2021/12/26 02:23:05;;;;;;;;;;;-6.60;85.90;;;;;;5016707;28;20433;-63
2021/12/26 02:27:31;;;;;;;7.50;3.63;;;-6.70;86.40;;;;;;5012553;28;20286;-63
2021/12/26 02:28:18;;;;;;;10.57;4.55;;;-6.70;85.90;;;;;;5011836;28;20030;-64
2021/12/26 02:30:45;;;;;;;7.75;3.92;;;-6.70;85.40;;;;;;5008668;28;20032;-63
2021/12/26 02:33:12;;;;;;;8.45;4.18;;;-6.80;85.30;;;;;;5014028;28;20028;-63
2021/12/26 02:35:39;;;;;;;8.45;4.07;;;-6.70;83.30;;;;;;5011752;28;20591;-63
2021/12/26 02:38:06;;;;;;;9.63;4.22;;;-6.70;80.80;;;;;;5013386;28;20033;-63
2021/12/26 02:40:33;;;;;;;10.25;4.22;;;-6.70;80.80;;;;;;4997503;28;20033;-63
2021/12/26 02:42:58;;;;;;;11.48;4.03;;;-6.80;82.10;;;;;;5015796;28;20037;-63
2021/12/26 02:45:25;;;;;;;9.88;3.92;;;-6.80;82.70;;;;;;5017421;28;20025;-63
2021/12/26 02:47:51;;;;;;;12.05;4.43;;;-6.80;83.80;;;;;;4999469;28;20033;-63
2021/12/26 02:50:28;;;;;;;11.73;4.70;;;-6.70;83.10;;;;;;5009985;28;20876;-62
2021/12/26 02:52:55;;;;;;;10.77;4.82;;;-6.80;83.00;;;;;;5006496;28;20541;-62
2021/12/26 02:55:23;;;;;;;11.02;5.00;;;-6.80;81.40;;;;;;5004381;28;20489;-62
2021/12/26 02:57:54;;;;;;;13.05;5.50;;;-6.90;81.50;;;;;;5016281;28;20132;-62
2021/12/26 03:00:24;;;;;;;12.70;5.32;;;-6.90;81.40;;;;;;5013801;28;20042;-62
2021/12/26 03:02:53;;;;;;;11.18;4.72;;;-7.10;81.90;;;;;;5014758;28;20041;-62
2021/12/26 03:05:20;;;;;;;13.38;5.30;;;-7.10;82.80;;;;;;5014104;28;20472;-62
2021/12/26 03:07:47;;;;;;;11.57;5.57;;;-7.10;82.50;;;;;;5018202;28;20375;-62
2021/12/26 03:10:23;;;;;;;10.82;4.50;;;-7.10;81.60;;;;;;5006757;28;20021;-62
2021/12/26 03:12:55;;;;;;;8.30;4.72;;;-7.10;81.30;;;;;;5008450;28;20023;-62
2021/12/26 03:15:22;;;;;;;8.70;4.20;;;-7.20;81.80;;;;;;5011656;28;20049;-62
2021/12/26 03:17:47;;;;;;;12.55;5.18;;;-7.20;82.60;;;;;;5007964;28;20022;-63
2021/12/26 03:20:17;;;;;;;9.57;4.40;;;-7.20;81.30;;;;;;5017499;28;20033;-62
2021/12/26 03:22:45;;;;;;;10.63;4.75;;;-7.30;81.60;;;;;;5009904;28;20472;-62
2021/12/26 03:25:17;;;;;;;10.55;4.72;;;-7.30;82.40;;;;;;4988007;28;20042;-62
2021/12/26 03:27:43;;;;;;;11.88;4.30;;;-7.30;81.50;;;;;;5008101;28;20490;-62
2021/12/26 03:30:12;;;;;;;10.60;4.47;;;-7.20;81.20;;;;;;5013885;28;20032;-62
2021/12/26 03:32:40;;;;;;;7.05;4.30;;;-7.20;81.10;;;;;;5010072;28;20834;-62
2021/12/26 03:35:07;;;;;;;10.27;5.13;;;-7.30;81.70;;;;;;5004322;28;20128;-62
2021/12/26 03:37:34;;;;;;;9.23;4.20;;;-7.30;81.90;;;;;;5011162;28;20489;-62
2021/12/26 03:40:07;;;;;;;14.63;5.25;;;-7.30;80.20;;;;;;5013832;28;20026;-62
2021/12/26 03:42:33;;;;;;;13.70;4.93;;;-7.30;80.40;;;;;;5009450;28;20557;-62
2021/12/26 03:45:00;;;;;;;14.35;5.53;;;-7.30;81.60;;;;;;5016172;28;20033;-62
2021/12/26 03:47:26;;;;;;;8.70;4.97;;;-7.30;82.10;;;;;;5013893;28;20032;-62
2021/12/26 03:49:53;;;;;;;11.48;4.82;;;-7.30;82.90;;;;;;5007601;28;20032;-62
2021/12/26 03:52:22;;;;;;;12.60;4.85;;;-7.20;80.60;;;;;;5002785;28;20036;-62
2021/12/26 03:54:49;;;;;;;10.60;5.22;;;-7.30;80.30;;;;;;5002265;28;20156;-62
2021/12/26 03:57:15;;;;;;;11.38;5.68;;;-7.30;81.20;;;;;;5011102;28;20033;-62
2021/12/26 03:59:41;;;;;;;9.85;4.43;;;-7.30;79.70;;;;;;5012368;28;20030;-62
2021/12/26 04:02:07;;;;;;;14.40;4.90;;;-7.40;79.60;;;;;;5015016;28;20107;-62
2021/12/26 04:04:32;;;;;;;12.45;5.35;;;-7.30;80.20;;;;;;5018415;28;20394;-62
2021/12/26 04:06:58;;;;;;;17.45;6.25;;;-7.40;81.00;;;;;;5006992;28;20409;-63
2021/12/26 04:09:24;;;;;;;21.17;7.03;;;-7.40;80.20;;;;;;5009023;28;20028;-62
2021/12/26 04:11:50;;;;;;;15.77;5.88;;;-7.40;80.00;;;;;;5012476;28;20026;-62
2021/12/26 04:14:19;;;;;;;18.70;6.43;;;-7.50;81.20;;;;;;5007240;28;20034;-62
2021/12/26 04:16:45;;;;;;;14.68;5.70;;;-7.50;81.80;;;;;;5005538;28;20034;-62
2021/12/26 04:19:11;;;;;;;10.80;5.13;;;-7.40;81.90;;;;;;5012198;28;20820;-62
2021/12/26 04:21:37;;;;;;;36.53;11.77;;;-7.40;83.20;;;;;;5015008;28;20044;-63
2021/12/26 04:24:04;;;;;;;30.52;10.20;;;-7.30;82.50;;;;;;5013695;28;20034;-63
2021/12/26 04:26:30;;;;;;;16.48;6.65;;;-7.30;82.00;;;;;;5020406;28;20109;-63
2021/12/26 04:28:57;;;;;;;14.23;6.10;;;-7.30;82.50;;;;;;5014921;28;20084;-63
2021/12/26 04:31:23;;;;;;;13.60;5.15;;;-7.30;83.20;;;;;;5010568;28;20033;-63
2021/12/26 04:33:49;;;;;;;8.35;5.13;;;-7.20;84.20;;;;;;5001238;28;20022;-63
2021/12/26 04:36:17;;;;;;;14.63;6.20;;;-7.10;84.90;;;;;;5001584;28;20041;-63
2021/12/26 04:38:43;;;;;;;12.52;5.75;;;-7.10;85.00;;;;;;5009116;28;20037;-63
2021/12/26 04:41:11;;;;;;;13.80;6.00;;;-7.10;84.80;;;;;;5015983;28;20421;-63
2021/12/26 04:43:51;;;;;;;19.38;7.95;;;-7.10;84.20;;;;;;5012040;28;20030;-63
2021/12/26 04:46:36;;;;;;;27.17;9.20;;;-7.10;82.70;;;;;;5004983;28;20030;-62
2021/12/26 04:49:04;;;;;;;29.67;10.40;;;-7.10;80.90;;;;;;5016310;28;20165;-63
2021/12/26 04:51:30;;;;;;;27.63;8.65;;;-7.20;80.70;;;;;;5008186;28;20035;-63
2021/12/26 04:54:01;;;;;;;23.25;9.43;;;-7.30;81.00;;;;;;5010433;28;20060;-63
2021/12/26 04:56:28;;;;;;;20.20;8.10;;;-7.30;79.90;;;;;;5005253;28;20034;-63
2021/12/26 04:58:53;;;;;;;24.58;9.30;;;-7.30;79.70;;;;;;5002866;28;20041;-63
2021/12/26 05:01:19;;;;;;;18.77;7.32;;;-7.30;78.90;;;;;;5011004;28;20053;-62
2021/12/26 05:03:45;;;;;;;26.38;8.18;;;-7.40;79.90;;;;;;5010870;28;20037;-63
2021/12/26 05:06:11;;;;;;;24.67;9.50;;;-7.40;81.50;;;;;;5018465;28;20125;-63
2021/12/26 05:08:37;;;;;;;20.35;8.02;;;-7.40;82.00;;;;;;5016786;28;20061;-63
2021/12/26 05:11:02;;;;;;;19.38;8.18;;;-7.40;81.60;;;;;;5014982;28;20033;-62
2021/12/26 05:13:30;;;;;;;17.48;7.95;;;-7.40;82.40;;;;;;5017601;28;20451;-63
2021/12/26 05:15:56;;;;;;;18.98;7.90;;;-7.40;82.40;;;;;;5006181;28;20548;-63
2021/12/26 05:18:22;;;;;;;25.27;10.07;;;-7.40;82.20;;;;;;5006469;28;20034;-63
2021/12/26 05:20:52;;;;;;;18.70;8.48;;;-7.40;83.00;;;;;;5019116;28;20034;-63
2021/12/26 05:23:18;;;;;;;26.60;8.88;;;-7.40;81.40;;;;;;5015365;28;20501;-63
2021/12/26 05:25:44;;;;;;;32.90;9.35;;;-7.40;80.80;;;;;;5013231;28;20083;-63
2021/12/26 05:28:10;;;;;;;21.88;8.35;;;-7.40;81.40;;;;;;5008079;28;20030;-63
2021/12/26 05:30:36;;;;;;;18.13;8.20;;;-7.40;80.80;;;;;;5003819;28;20065;-63
2021/12/26 05:33:40;;;;;;;19.75;7.97;;;-7.50;80.00;;;;;;5019168;28;20038;-63
2021/12/26 05:36:06;;;;;;;20.08;8.13;;;-7.50;79.00;;;;;;5009029;28;20029;-63
2021/12/26 05:38:36;;;;;;;21.23;7.95;;;-7.60;78.60;;;;;;5007974;28;20099;-63
2021/12/26 05:41:02;;;;;;;16.80;6.95;;;-7.60;79.20;;;;;;5016185;28;20129;-63
2021/12/26 05:43:29;;;;;;;12.00;6.45;;;-7.60;81.60;;;;;;5009798;28;20045;-63
2021/12/26 05:45:58;;;;;;;15.68;6.68;;;-7.60;83.20;;;;;;5000983;28;20026;-62
2021/12/26 05:48:25;;;;;;;14.18;6.57;;;-7.60;83.90;;;;;;5017366;28;20128;-63
2021/12/26 05:50:52;;;;;;;16.45;6.53;;;-7.60;83.40;;;;;;5010907;28;20099;-63
2021/12/26 05:53:36;;;;;;;15.40;5.72;;;-7.60;82.70;;;;;;5007124;28;20093;-63
2021/12/26 05:56:03;;;;;;;19.95;6.55;;;-7.60;81.20;;;;;;5016689;28;20029;-62
2021/12/26 05:58:33;;;;;;;19.30;7.60;;;-7.60;79.90;;;;;;5013401;28;20029;-63
2021/12/26 06:00:58;;;;;;;24.50;7.65;;;-7.60;80.10;;;;;;5019674;28;20024;-63
2021/12/26 06:03:24;;;;;;;18.58;6.95;;;-7.70;81.30;;;;;;5016373;28;20033;-63
2021/12/26 06:05:50;;;;;;;17.30;7.70;;;-7.60;82.70;;;;;;5011918;28;20107;-63
2021/12/26 06:08:17;;;;;;;21.27;7.40;;;-7.70;82.30;;;;;;5009071;28;20029;-63
2021/12/26 06:10:48;;;;;;;26.38;8.43;;;-7.70;82.50;;;;;;5003276;28;20561;-63
2021/12/26 06:13:14;;;;;;;22.33;8.40;;;-7.70;82.60;;;;;;5000328;28;20022;-63
2021/12/26 06:15:40;;;;;;;23.02;8.07;;;-7.60;81.80;;;;;;5016755;28;20053;-63
2021/12/26 06:18:06;;;;;;;21.30;8.25;;;-7.60;81.10;;;;;;5009081;28;20038;-62
2021/12/26 06:20:50;;;;;;;19.75;6.93;;;-7.70;81.50;;;;;;5014200;28;20044;-63
2021/12/26 06:23:34;;;;;;;17.85;6.78;;;-7.70;81.40;;;;;;5013675;28;20524;-63
2021/12/26 06:26:20;;;;;;;13.40;5.68;;;-7.70;81.00;;;;;;5008935;28;20055;-62
2021/12/26 06:28:47;;;;;;;13.45;5.55;;;-7.60;84.10;;;;;;5007542;28;20029;-63
2021/12/26 06:31:31;;;;;;;11.85;5.80;;;-7.50;85.30;;;;;;5008229;28;20501;-62
2021/12/26 06:34:19;;;;;;;10.05;5.05;;;-7.50;84.20;;;;;;5015741;28;20049;-63
2021/12/26 06:37:04;;;;;;;13.40;6.57;;;-7.40;85.20;;;;;;5008741;28;20890;-62
2021/12/26 06:39:48;;;;;;;21.83;7.88;;;-7.40;85.40;;;;;;5008425;28;20080;-62
2021/12/26 06:42:37;;;;;;;22.27;7.65;;;-7.40;84.90;;;;;;5012377;28;20499;-63
2021/12/26 06:45:22;;;;;;;22.52;7.15;;;-7.40;84.00;;;;;;5008202;28;20121;-63
2021/12/26 06:48:21;;;;;;;16.35;7.57;;;-7.40;82.50;;;;;;5021988;28;20069;-62
2021/12/26 06:50:48;;;;;;;18.45;8.30;;;-7.50;80.80;;;;;;5013496;28;20160;-63
2021/12/26 06:53:15;;;;;;;21.83;8.80;;;-7.50;80.60;;;;;;5004015;28;20029;-63
2021/12/26 06:55:41;;;;;;;17.60;8.05;;;-7.50;81.70;;;;;;5002379;28;20069;-63
2021/12/26 06:58:10;;;;;;;19.30;7.97;;;-7.50;82.60;;;;;;5004885;28;20034;-63
2021/12/26 07:00:36;;;;;;;14.07;5.53;;;-7.50;82.60;;;;;;4995674;28;20127;-63
2021/12/26 07:03:03;;;;;;;14.63;5.80;;;-7.40;83.80;;;;;;5001775;28;20038;-63
2021/12/26 07:05:29;;;;;;;17.13;5.55;;;-7.30;85.10;;;;;;5013243;28;20044;-63
2021/12/26 07:08:13;;;;;;;9.80;5.07;;;-7.30;85.30;;;;;;5005575;28;20063;-63
2021/12/26 07:10:50;;;;;;;12.13;4.90;;;-7.20;85.20;;;;;;5005514;28;20025;-63
2021/12/26 07:13:16;;;;;;;13.15;6.05;;;-7.10;85.40;;;;;;5005056;28;20033;-63
2021/12/26 07:15:45;;;;;;;12.10;5.50;;;-7.10;85.80;;;;;;5009539;28;20136;-63
2021/12/26 07:18:11;;;;;;;11.05;5.90;;;-7.00;86.60;;;;;;5012059;28;20128;-63
2021/12/26 07:20:40;;;;;;;11.27;5.18;;;-7.00;86.60;;;;;;5012802;28;20036;-63
2021/12/26 07:23:41;;;;;;;11.57;5.88;;;-7.00;86.40;;;;;;5008982;28;20504;-63
2021/12/26 07:26:13;;;;;;;12.70;6.30;;;-7.00;86.30;;;;;;5010675;28;20108;-63
2021/12/26 07:28:39;;;;;;;14.43;6.00;;;-6.90;85.00;;;;;;5007192;28;20113;-63
2021/12/26 07:31:20;;;;;;;37.45;12.55;;;-6.90;84.10;;;;;;5011475;28;20030;-63
2021/12/26 07:33:51;;;;;;;38.13;13.23;;;-6.90;83.90;;;;;;5001482;28;20297;-63
2021/12/26 07:36:18;;;;;;;31.42;10.65;;;-6.90;84.80;;;;;;5005843;28;20081;-63
2021/12/26 07:38:43;;;;;;;29.52;10.90;;;-6.80;85.20;;;;;;5010820;28;20687;-65
2021/12/26 07:41:10;;;;;;;24.17;9.57;;;-6.90;85.30;;;;;;5005521;28;20223;-64
2021/12/26 07:43:38;;;;;;;21.42;9.93;;;-6.80;84.90;;;;;;5009401;28;20026;-64
2021/12/26 07:46:22;;;;;;;21.95;9.52;;;-6.90;84.10;;;;;;5007084;28;20064;-64
2021/12/26 07:48:49;;;;;;;20.98;8.57;;;-6.80;84.20;;;;;;5009159;28;20032;-64
2021/12/26 07:51:48;;;;;;;14.45;6.50;;;-6.80;82.60;;;;;;5014889;28;20068;-64
2021/12/26 07:54:32;;;;;;;18.27;7.30;;;-6.80;83.40;;;;;;5013100;28;20052;-65
2021/12/26 07:57:16;;;;;;;17.67;6.40;;;-6.70;84.40;;;;;;5014028;28;20053;-63
2021/12/26 08:00:00;;;;;;;15.70;6.32;;;-6.70;84.20;;;;;;5005477;28;20873;-64
2021/12/26 08:02:57;;;;;;;18.80;7.32;;;-6.50;84.50;;;;;;5013831;28;20034;-63
2021/12/26 08:05:42;;;;;;;12.93;6.80;;;-6.50;85.10;;;;;;5004873;28;20048;-65
2021/12/26 08:08:21;;;;;;;17.70;7.18;;;-6.40;85.50;;;;;;5004375;28;20026;-63
2021/12/26 08:10:47;;;;;;;15.15;6.60;;;-6.30;85.40;;;;;;5008434;28;20095;-65
2021/12/26 08:13:13;;;;;;;12.85;6.25;;;-6.20;85.40;;;;;;5005363;28;20030;-62
2021/12/26 08:15:39;;;;;;;10.00;5.07;;;-6.10;85.30;;;;;;5007405;28;20071;-63
2021/12/26 08:18:04;;;;;;;8.82;4.75;;;-6.10;86.90;;;;;;5003575;28;20490;-63
2021/12/26 08:20:30;;;;;;;13.18;5.40;;;-6.10;87.60;;;;;;5010053;28;20088;-63
2021/12/26 08:22:57;;;;;;;14.07;5.70;;;-6.00;88.30;;;;;;5007204;28;20034;-63
2021/12/26 08:25:24;;;;;;;11.68;4.35;;;-5.90;88.60;;;;;;5009873;28;20138;-63
2021/12/26 08:27:49;;;;;;;15.50;5.00;;;-5.60;87.90;;;;;;5009477;28;20770;-63
2021/12/26 08:30:15;;;;;;;9.45;5.22;;;-5.20;86.00;;;;;;5005596;28;20043;-63
2021/12/26 08:32:42;;;;;;;12.48;4.90;;;-4.70;84.50;;;;;;5010831;28;20060;-63
2021/12/26 08:35:09;;;;;;;14.60;4.90;;;-4.00;80.70;;;;;;5011954;28;20041;-62
2021/12/26 08:37:37;;;;;;;12.02;4.97;;;-3.60;78.40;;;;;;5017715;28;20033;-65
2021/12/26 08:40:03;;;;;;;8.50;4.50;;;-3.70;77.50;;;;;;5014338;28;20025;-65
2021/12/26 08:42:29;;;;;;;7.53;4.45;;;-3.80;78.70;;;;;;5009740;28;20061;-65
2021/12/26 08:44:57;;;;;;;13.25;5.93;;;-3.70;77.90;;;;;;5011305;28;20124;-66
2021/12/26 08:47:23;;;;;;;12.93;5.53;;;-3.70;78.30;;;;;;5022382;28;20217;-67
2021/12/26 08:49:48;;;;;;;12.00;5.30;;;-3.80;78.20;;;;;;5016080;28;20033;-63
2021/12/26 08:52:14;;;;;;;14.02;6.28;;;-3.90;79.00;;;;;;5012081;28;20128;-62
2021/12/26 08:54:40;;;;;;;13.52;5.45;;;-4.10;79.90;;;;;;5010316;28;20079;-65
2021/12/26 08:57:07;;;;;;;12.88;5.75;;;-4.20;80.80;;;;;;5014650;28;20033;-65
2021/12/26 08:59:33;;;;;;;12.90;5.50;;;-4.30;81.60;;;;;;5012778;28;20556;-66
2021/12/26 09:02:02;;;;;;;11.20;4.95;;;-4.20;82.40;;;;;;5014159;28;20112;-66
2021/12/26 09:04:29;;;;;;;11.43;5.18;;;-4.20;81.80;;;;;;5013658;28;20037;-64
2021/12/26 09:06:56;;;;;;;11.70;5.68;;;-4.00;82.30;;;;;;5016389;28;20041;-65
2021/12/26 09:09:21;;;;;;;15.85;5.97;;;-3.40;80.50;;;;;;5013206;28;20244;-66
2021/12/26 09:11:47;;;;;;;9.50;5.22;;;-2.90;77.60;;;;;;5014152;28;20022;-64
2021/12/26 09:14:13;;;;;;;9.38;5.55;;;-2.50;74.90;;;;;;5008465;28;20479;-65
2021/12/26 09:16:39;;;;;;;9.80;5.10;;;-1.90;75.30;;;;;;5014083;28;20108;-65
2021/12/26 09:19:05;;;;;;;10.80;6.22;;;-1.20;71.40;;;;;;5008650;28;20515;-65
2021/12/26 09:21:32;;;;;;;13.68;6.03;;;-0.20;69.10;;;;;;5010822;28;20038;-66
2021/12/26 09:23:58;;;;;;;10.70;4.80;;;1.00;64.10;;;;;;5012309;28;20815;-65
2021/12/26 09:26:24;;;;;;;9.30;5.15;;;1.80;57.90;;;;;;5011216;28;20040;-65
2021/12/26 09:28:50;;;;;;;11.05;4.68;;;2.50;55.10;;;;;;5010205;28;20022;-70
2021/12/26 09:31:16;;;;;;;9.30;4.90;;;2.90;52.80;;;;;;5004168;28;20036;-69
2021/12/26 09:33:43;;;;;;;11.05;5.60;;;3.30;52.60;;;;;;5013775;28;20051;-70
2021/12/26 09:36:08;;;;;;;13.70;5.53;;;3.90;51.60;;;;;;5010267;28;20053;-67
2021/12/26 09:38:34;;;;;;;12.55;5.68;;;4.60;49.30;;;;;;5010504;28;20042;-65
2021/12/26 09:41:00;;;;;;;10.45;5.82;;;5.10;48.80;;;;;;5009584;28;20025;-64
2021/12/26 09:43:26;;;;;;;13.45;5.13;;;5.40;48.50;;;;;;5009085;28;20049;-68
2021/12/26 09:45:52;;;;;;;10.75;5.10;;;5.60;46.80;;;;;;5010752;28;20120;-67
2021/12/26 09:48:19;;;;;;;10.68;4.93;;;5.70;45.50;;;;;;5011986;28;20036;-67
2021/12/26 09:50:46;;;;;;;13.10;5.50;;;5.80;44.90;;;;;;5009906;28;20576;-67
2021/12/26 09:53:13;;;;;;;10.70;5.50;;;5.80;44.70;;;;;;5006677;28;20144;-68
2021/12/26 09:55:40;;;;;;;11.65;5.20;;;6.20;44.90;;;;;;5010078;28;20037;-70
2021/12/26 09:58:06;;;;;;;12.43;5.20;;;6.20;42.70;;;;;;5012750;28;20103;-68
2021/12/26 10:00:41;;;;;;;10.15;5.30;;;6.20;42.50;;;;;;5014944;28;20041;-68
2021/12/26 10:03:30;;;;;;;12.63;5.60;;;6.20;43.40;;;;;;5009420;28;20091;-67
2021/12/26 10:06:08;;;;;;;14.05;5.30;;;6.20;43.30;;;;;;5015168;28;20033;-67
2021/12/26 10:08:49;;;;;;;11.27;4.95;;;6.00;43.10;;;;;;5009297;28;20053;-67
2021/12/26 10:11:17;;;;;;;8.40;4.43;;;6.00;43.50;;;;;;5013604;28;20021;-66
2021/12/26 10:13:57;;;;;;;10.70;4.78;;;5.30;43.40;;;;;;5013006;28;20037;-66
2021/12/26 10:16:28;;;;;;;11.70;5.30;;;5.40;43.80;;;;;;5009230;28;20049;-66
2021/12/26 10:18:55;;;;;;;11.00;5.20;;;4.90;44.40;;;;;;5013643;28;20884;-66
2021/12/26 10:21:25;;;;;;;9.80;5.10;;;5.20;44.60;;;;;;5010258;28;20195;-66
2021/12/26 10:23:53;;;;;;;11.23;5.45;;;5.50;43.50;;;;;;5004227;28;20109;-65
2021/12/26 10:26:24;;;;;;;12.48;5.53;;;5.90;42.70;;;;;;5010303;28;20040;-65
2021/12/26 10:29:04;;;;;;;14.65;5.25;;;6.10;42.30;;;;;;5014766;28;20100;-64
2021/12/26 10:31:29;;;;;;;11.25;5.03;;;6.10;43.00;;;;;;5014994;28;20033;-65
2021/12/26 10:33:55;;;;;;;11.63;5.35;;;6.10;42.70;;;;;;5012735;28;20044;-65
2021/12/26 10:36:21;;;;;;;9.43;4.50;;;6.00;43.90;;;;;;5017978;28;20043;-67
2021/12/26 10:39:12;;;;;;;10.75;4.72;;;5.40;44.00;;;;;;5013655;28;20068;-65
2021/12/26 10:42:05;;;;;;;9.18;4.57;;;4.80;45.50;;;;;;5011794;28;20453;-65
2021/12/26 10:44:36;;;;;;;8.43;4.72;;;4.00;48.80;;;;;;5008159;28;20129;-64
2021/12/26 10:47:06;;;;;;;7.72;4.03;;;3.20;50.80;;;;;;5017472;28;20037;-63
2021/12/26 10:49:37;;;;;;;9.75;4.38;;;2.60;52.20;;;;;;5009975;28;20034;-64
2021/12/26 10:52:17;;;;;;;10.85;4.47;;;2.00;54.50;;;;;;5008122;28;20371;-66
2021/12/26 10:54:48;;;;;;;8.88;4.03;;;1.60;55.10;;;;;;5013470;28;20025;-64
2021/12/26 10:57:19;;;;;;;10.10;4.82;;;1.10;55.70;;;;;;5017992;28;20042;-66
2021/12/26 10:59:48;;;;;;;12.23;4.30;;;0.70;56.70;;;;;;5013485;28;20091;-68
2021/12/26 11:02:22;;;;;;;10.77;4.68;;;0.30;55.70;;;;;;5010528;28;20125;-66
2021/12/26 11:05:02;;;;;;;10.07;4.80;;;-0.10;58.30;;;;;;5012513;28;20029;-67
2021/12/26 11:07:29;;;;;;;8.60;4.53;;;-0.20;59.70;;;;;;5015805;28;20041;-68
2021/12/26 11:10:10;;;;;;;11.73;4.80;;;-0.20;58.50;;;;;;5006563;28;20076;-67
2021/12/26 11:12:39;;;;;;;7.43;3.83;;;-0.30;58.00;;;;;;5010132;28;20037;-68
2021/12/26 11:15:06;;;;;;;10.25;4.13;;;-0.30;57.70;;;;;;5016201;28;20026;-68
2021/12/26 11:17:49;;;;;;;10.88;4.53;;;-0.10;56.80;;;;;;5011136;28;20115;-68
2021/12/26 11:20:34;;;;;;;11.57;4.18;;;0.10;57.40;;;;;;5010323;28;20025;-68
2021/12/26 11:23:09;;;;;;;7.57;3.63;;;-0.40;56.90;;;;;;5003694;28;20022;-68
2021/12/26 11:25:36;;;;;;;7.55;4.15;;;-0.70;59.40;;;;;;5004917;28;20037;-68
2021/12/26 11:28:02;;;;;;;10.07;3.65;;;-0.80;60.50;;;;;;5011844;28;20064;-68
2021/12/26 11:30:28;;;;;;;10.93;4.03;;;-0.70;60.40;;;;;;5007637;28;20791;-68
2021/12/26 11:32:54;;;;;;;8.70;4.28;;;-0.70;60.80;;;;;;5015076;28;20036;-68
2021/12/26 11:35:20;;;;;;;10.55;4.47;;;-0.50;61.80;;;;;;5010191;28;20435;-67
2021/12/26 11:37:47;;;;;;;10.18;4.55;;;-0.40;60.60;;;;;;5008013;28;20034;-68
2021/12/26 11:40:50;;;;;;;6.47;3.30;;;-0.60;58.90;;;;;;5007904;28;20581;-68
2021/12/26 11:43:56;;;;;;;4.53;2.83;;;-0.60;60.50;;;;;;5007843;28;20863;-68
2021/12/26 11:47:25;;;;;;;7.15;3.40;;;-0.50;61.80;;;;;;5015462;28;20041;-69
2021/12/26 11:50:28;;;;;;;8.73;3.97;;;-0.50;58.80;;;;;;5013973;28;20044;-68
2021/12/26 11:54:08;;;;;;;11.18;3.90;;;-0.70;59.80;;;;;;5008280;28;20100;-69
2021/12/26 11:57:16;;;;;;;8.68;3.58;;;-0.70;60.40;;;;;;5001481;28;20043;-69
2021/12/26 12:00:08;;;;;;;7.68;3.90;;;-0.60;60.90;;;;;;5005621;28;20067;-68
2021/12/26 12:02:51;;;;;;;7.65;3.65;;;-0.70;60.80;;;;;;5003845;28;20084;-68
2021/12/26 12:05:22;;;;;;;7.45;3.42;;;-0.60;61.80;;;;;;5007273;28;20033;-68
2021/12/26 12:07:55;;;;;;;9.85;4.22;;;-0.50;61.40;;;;;;5009258;28;20029;-67
2021/12/26 12:10:53;;;;;;;12.07;4.03;;;-0.40;61.00;;;;;;5014834;28;20048;-67
2021/12/26 12:13:21;;;;;;;8.27;4.07;;;-0.30;60.40;;;;;;5010082;28;20038;-68
2021/12/26 12:15:55;;;;;;;10.15;4.38;;;-0.30;59.30;;;;;;5006547;28;20481;-68
2021/12/26 12:18:34;;;;;;;7.82;3.42;;;-0.40;58.80;;;;;;5004369;28;20087;-69
2021/12/26 12:21:36;;;;;;;8.93;3.25;;;-0.40;58.40;;;;;;5006312;28;20069;-69
2021/12/26 12:24:26;;;;;;;9.13;3.90;;;-0.50;60.00;;;;;;5004888;28;20086;-65
2021/12/26 12:26:58;;;;;;;7.70;4.35;;;-0.70;58.30;;;;;;5011499;28;20496;-66
2021/12/26 12:29:24;;;;;;;8.52;3.75;;;-0.70;59.00;;;;;;5008312;28;20064;-67
2021/12/26 12:32:11;;;;;;;12.20;4.43;;;-0.70;59.30;;;;;;5008471;28;20108;-65
2021/12/26 12:34:49;;;;;;;12.00;3.83;;;-0.60;57.60;;;;;;5006642;28;20050;-66
2021/12/26 12:37:27;;;;;;;8.27;3.70;;;-0.60;58.40;;;;;;5008908;28;20045;-70
2021/12/26 12:40:29;;;;;;;4.60;2.53;;;-0.60;57.40;;;;;;5006150;28;20687;-66
2021/12/26 12:43:10;;;;;;;6.25;3.50;;;-0.70;57.60;;;;;;5009497;28;20652;-64
2021/12/26 12:48:29;;;;;;;8.65;3.25;;;-0.90;58.00;;;;;;5011765;28;20042;-63
2021/12/26 12:51:02;;;;;;;6.07;2.80;;;-1.00;57.20;;;;;;5004828;28;20791;-67
2021/12/26 12:53:50;;;;;;;6.35;2.88;;;-1.00;56.90;;;;;;5008919;28;20045;-67
2021/12/26 12:56:33;;;;;;;8.38;3.15;;;-0.90;57.80;;;;;;5014032;28;20160;-67
2021/12/26 13:01:52;;;;;;;5.47;2.60;;;-0.70;58.50;;;;;;5006523;28;20045;-67
2021/12/26 13:04:21;;;;;;;7.22;3.30;;;-0.60;58.60;;;;;;5005456;28;20041;-67
2021/12/26 13:06:52;;;;;;;8.27;3.08;;;-0.70;57.30;;;;;;5011091;28;20026;-67
2021/12/26 13:09:19;;;;;;;6.88;3.35;;;-0.70;57.10;;;;;;5012827;28;20591;-67
2021/12/26 13:11:45;;;;;;;5.95;2.70;;;-0.70;56.00;;;;;;5013978;28;20014;-71